createdAt,value
2022-10-25T00:02:24.944Z,98099.98
2022-10-25T00:05:28.088Z,98097.38
2022-10-25T00:08:31.090Z,98102.04
2022-10-25T00:11:34.498Z,98097.52
2022-10-25T00:14:37.480Z,98092.88
2022-10-25T00:17:41.708Z,98103.78
2022-10-25T00:20:46.826Z,98111.29
2022-10-25T00:23:50.855Z,98115.48
2022-10-25T00:26:53.763Z,98120.23
2022-10-25T00:29:56.658Z,98116.20
2022-10-25T00:32:59.774Z,98109.27
2022-10-25T00:36:19.432Z,98113.30
2022-10-25T00:39:22.285Z,98116.56
2022-10-25T00:42:27.180Z,98114.45
2022-10-25T00:45:30.213Z,98116.83
2022-10-25T00:48:34.637Z,98112.61
2022-10-25T00:51:50.745Z,98112.77
2022-10-25T00:54:54.595Z,98113.42
2022-10-25T00:58:06.773Z,98114.78
2022-10-25T01:01:10.504Z,98112.33
2022-10-25T01:04:17.393Z,98105.31
2022-10-25T01:07:20.336Z,98097.83
2022-10-25T01:10:23.229Z,98098.32
2022-10-25T01:13:26.196Z,98101.71
2022-10-25T01:16:48.889Z,98091.86
2022-10-25T01:20:36.698Z,98095.54
2022-10-25T01:24:06.042Z,98101.70
2022-10-25T01:27:30.893Z,98096.84
2022-10-25T01:30:48.938Z,98098.21
2022-10-25T01:34:11.833Z,98107.65
2022-10-25T01:37:22.561Z,98102.48
2022-10-25T01:40:35.925Z,98099.98
2022-10-25T01:43:57.332Z,98100.15
2022-10-25T01:47:07.527Z,98108.80
2022-10-25T01:50:17.756Z,98110.11
2022-10-25T01:53:20.636Z,98107.35
2022-10-25T01:56:39.320Z,98106.74
2022-10-25T02:00:04.398Z,98110.55
2022-10-25T02:03:33.876Z,98112.64
2022-10-25T02:07:05.826Z,98111.77
2022-10-25T02:10:28.699Z,98108.64
2022-10-25T02:13:59.298Z,98109.75
2022-10-25T02:17:10.894Z,98101.43
2022-10-25T02:20:17.778Z,98103.58
2022-10-25T02:23:21.506Z,98105.66
2022-10-25T02:26:26.359Z,98100.90
2022-10-25T02:29:32.108Z,98101.10
2022-10-25T02:32:35.399Z,98102.23
2022-10-25T02:35:39.238Z,98099.84
2022-10-25T02:38:44.297Z,98099.80
2022-10-25T02:41:47.131Z,98098.11
2022-10-25T02:44:50.004Z,98096.42
2022-10-25T02:47:52.922Z,98100.02
2022-10-25T02:50:55.769Z,98099.98
2022-10-25T02:53:58.817Z,98105.61
2022-10-25T02:57:01.684Z,98106.02
2022-10-25T03:00:07.797Z,98106.75
2022-10-25T03:03:11.057Z,98106.04
2022-10-25T03:06:14.793Z,98101.49
2022-10-25T03:09:17.803Z,98104.37
2022-10-25T03:12:20.774Z,98107.23
2022-10-25T03:15:23.664Z,98110.02
2022-10-25T03:18:26.673Z,98116.36
2022-10-25T03:21:29.622Z,98117.98
2022-10-25T03:24:32.588Z,98118.70
2022-10-25T03:27:35.526Z,98117.70
2022-10-25T03:30:38.594Z,98118.06
2022-10-25T03:33:41.808Z,98122.74
2022-10-25T03:36:44.735Z,98120.16
2022-10-25T03:39:47.588Z,98124.44
2022-10-25T03:42:50.510Z,98120.32
2022-10-25T03:45:53.465Z,98123.42
2022-10-25T03:48:57.478Z,98125.45
2022-10-25T03:52:02.765Z,98126.24
2022-10-25T03:55:08.976Z,98129.69
2022-10-25T03:58:11.994Z,98137.81
2022-10-25T04:01:16.834Z,98134.25
2022-10-25T04:04:19.841Z,98133.73
2022-10-25T04:07:22.802Z,98126.55
2022-10-25T04:10:26.319Z,98127.64
2022-10-25T04:13:29.201Z,98128.50
2022-10-25T04:16:32.046Z,98127.94
2022-10-25T04:19:34.967Z,98128.64
2022-10-25T04:25:45.687Z,98132.34
2022-10-25T04:28:53.351Z,98130.05
2022-10-25T04:31:56.233Z,98127.98
2022-10-25T04:34:59.100Z,98125.07
2022-10-25T04:38:02.103Z,98127.04
2022-10-25T04:41:05.181Z,98127.29
2022-10-25T04:44:08.109Z,98124.13
2022-10-25T04:47:11.082Z,98126.27
2022-10-25T04:50:15.533Z,98127.23
2022-10-25T04:53:18.588Z,98128.85
2022-10-25T04:56:23.885Z,98129.09
2022-10-25T04:59:26.798Z,98126.45
2022-10-25T05:02:29.780Z,98132.76
2022-10-25T05:05:32.674Z,98130.56
2022-10-25T05:08:36.891Z,98135.68
2022-10-25T05:11:39.886Z,98134.70
2022-10-25T05:14:42.824Z,98134.79
2022-10-25T05:17:45.697Z,98139.22
2022-10-25T05:20:59.111Z,98139.48
2022-10-25T05:24:02.649Z,98140.98
2022-10-25T05:27:05.807Z,98143.92
2022-10-25T05:30:09.971Z,98144.11
2022-10-25T05:33:19.795Z,98146.19
2022-10-25T05:36:25.530Z,98149.92
2022-10-25T05:39:28.359Z,98153.98
2022-10-25T05:42:31.239Z,98164.48
2022-10-25T05:45:34.089Z,98167.34
2022-10-25T05:48:37.747Z,98169.33
2022-10-25T05:51:40.815Z,98174.20
2022-10-25T05:54:43.689Z,98183.84
2022-10-25T05:57:55.774Z,98184.86
2022-10-25T06:01:00.716Z,98188.48
2022-10-25T06:04:03.802Z,98184.70
2022-10-25T06:07:06.806Z,98186.35
2022-10-25T06:10:10.834Z,98186.68
2022-10-25T06:13:13.895Z,98189.36
2022-10-25T06:16:19.963Z,98186.00
2022-10-25T06:19:22.928Z,98186.73
2022-10-25T06:22:25.912Z,98187.14
2022-10-25T06:25:29.310Z,98185.24
2022-10-25T06:28:32.701Z,98184.90
2022-10-25T06:31:35.697Z,98192.06
2022-10-25T06:34:38.570Z,98199.30
2022-10-25T06:37:41.420Z,98203.39
2022-10-25T06:40:44.220Z,98217.23
2022-10-25T06:43:47.465Z,98220.02
2022-10-25T06:47:15.979Z,98216.34
2022-10-25T06:50:15.819Z,98221.43
2022-10-25T06:53:18.720Z,98219.08
2022-10-25T06:56:21.608Z,98223.09
2022-10-25T06:59:25.084Z,98227.90
2022-10-25T07:02:28.255Z,98231.54
2022-10-25T07:05:32.473Z,98228.64
2022-10-25T07:08:37.095Z,98235.18
2022-10-25T07:11:40.655Z,98236.61
2022-10-25T07:14:43.722Z,98240.36
2022-10-25T07:17:46.921Z,98240.90
2022-10-25T07:20:50.839Z,98249.85
2022-10-25T07:23:54.334Z,98247.70
2022-10-25T07:26:57.309Z,98244.29
2022-10-25T07:30:00.242Z,98245.36
2022-10-25T07:33:03.404Z,98245.03
2022-10-25T07:36:11.093Z,98241.13
2022-10-25T07:39:14.644Z,98240.71
2022-10-25T07:42:17.493Z,98240.24
2022-10-25T07:45:23.625Z,98240.55
2022-10-25T07:48:28.525Z,98243.78
2022-10-25T07:51:31.585Z,98248.84
2022-10-25T07:54:34.734Z,98249.25
2022-10-25T07:57:37.771Z,98257.39
2022-10-25T08:00:40.938Z,98266.08
2022-10-25T08:03:43.826Z,98266.23
2022-10-25T08:06:46.740Z,98262.23
2022-10-25T08:09:49.594Z,98266.83
2022-10-25T08:12:55.283Z,98264.88
2022-10-25T08:15:58.870Z,98264.32
2022-10-25T08:19:02.172Z,98266.94
2022-10-25T08:22:05.105Z,98264.06
2022-10-25T08:25:08.491Z,98262.95
2022-10-25T08:28:11.485Z,98260.08
2022-10-25T08:31:14.486Z,98258.31
2022-10-25T08:34:17.543Z,98255.73
2022-10-25T08:37:20.991Z,98256.09
2022-10-25T08:40:47.507Z,98261.78
2022-10-25T08:44:12.723Z,98262.60
2022-10-25T08:47:21.196Z,98262.27
2022-10-25T08:50:35.548Z,98261.70
2022-10-25T08:53:43.738Z,98260.46
2022-10-25T08:57:03.454Z,98263.02
2022-10-25T09:00:23.985Z,98259.11
2022-10-25T09:03:27.844Z,98254.48
2022-10-25T09:07:08.475Z,98250.30
2022-10-25T09:10:23.224Z,98251.58
2022-10-25T09:13:50.869Z,98250.46
2022-10-25T09:17:01.800Z,98260.13
2022-10-25T09:20:15.710Z,98257.17
2022-10-25T09:23:18.654Z,98258.72
2022-10-25T09:26:32.506Z,98258.88
2022-10-25T09:29:41.678Z,98257.52
2022-10-25T09:32:51.391Z,98261.16
2022-10-25T09:35:59.698Z,98277.19
2022-10-25T09:39:15.757Z,98280.46
2022-10-25T09:42:33.104Z,98284.91
2022-10-25T09:45:55.758Z,98288.02
2022-10-25T09:49:05.551Z,98280.20
2022-10-25T09:52:35.328Z,98279.97
2022-10-25T09:55:50.196Z,98276.86
2022-10-25T09:58:53.422Z,98278.61
2022-10-25T10:01:56.813Z,98276.34
2022-10-25T10:04:59.806Z,98274.17
2022-10-25T10:08:02.713Z,98269.66
2022-10-25T10:11:07.180Z,98272.52
2022-10-25T10:14:33.303Z,98277.52
2022-10-25T10:17:38.226Z,98280.30
2022-10-25T10:21:03.426Z,98280.64
2022-10-25T10:24:06.640Z,98278.74
2022-10-25T10:27:13.924Z,98280.04
2022-10-25T10:30:31.405Z,98271.99
2022-10-25T10:33:35.355Z,98270.79
2022-10-25T10:36:38.409Z,98274.90
2022-10-25T10:39:56.371Z,98274.41
2022-10-25T10:43:00.476Z,98272.81
2022-10-25T10:46:08.492Z,98268.86
2022-10-25T10:49:11.924Z,98268.80
2022-10-25T10:52:31.235Z,98265.41
2022-10-25T10:55:38.028Z,98261.46
2022-10-25T10:58:43.995Z,98269.29
2022-10-25T11:01:47.074Z,98271.70
2022-10-25T11:04:52.926Z,98271.17
2022-10-25T11:08:17.434Z,98274.19
2022-10-25T11:11:24.871Z,98269.06
2022-10-25T11:14:28.028Z,98270.25
2022-10-25T11:17:37.288Z,98265.72
2022-10-25T11:20:43.269Z,98265.92
2022-10-25T11:23:52.347Z,98265.52
2022-10-25T11:27:29.155Z,98265.44
2022-10-25T11:31:14.900Z,98264.31
2022-10-25T11:34:39.581Z,98261.92
2022-10-25T11:37:51.491Z,98264.12
2022-10-25T11:41:28.392Z,98268.31
2022-10-25T11:44:48.913Z,98271.31
2022-10-25T11:48:06.710Z,98273.33
2022-10-25T11:51:35.256Z,98269.38
2022-10-25T11:55:09.981Z,98268.29
2022-10-25T11:58:34.915Z,98271.02
2022-10-25T12:01:56.410Z,98277.04
2022-10-25T12:05:23.193Z,98276.45
2022-10-25T12:09:00.183Z,98278.30
2022-10-25T12:12:08.944Z,98273.95
2022-10-25T12:15:21.694Z,98276.23
2022-10-25T12:18:34.657Z,98273.70
2022-10-25T12:21:55.687Z,98273.89
2022-10-25T12:25:32.163Z,98270.63
2022-10-25T12:28:48.755Z,98265.66
2022-10-25T12:31:58.796Z,98256.98
2022-10-25T12:35:05.163Z,98256.04
2022-10-25T12:38:34.153Z,98259.48
2022-10-25T12:41:40.280Z,98255.78
2022-10-25T12:44:58.365Z,98256.06
2022-10-25T12:48:26.144Z,98251.94
2022-10-25T12:51:50.408Z,98255.39
2022-10-25T12:54:59.705Z,98252.75
2022-10-25T12:58:14.606Z,98250.37
2022-10-25T13:01:28.793Z,98252.48
2022-10-25T13:04:44.056Z,98250.97
2022-10-25T13:07:48.843Z,98252.72
2022-10-25T13:11:08.462Z,98251.66
2022-10-25T13:14:24.442Z,98255.16
2022-10-25T13:17:27.248Z,98259.30
2022-10-25T13:20:39.642Z,98260.50
2022-10-25T13:23:53.530Z,98259.63
2022-10-25T13:27:14.693Z,98259.02
2022-10-25T13:30:31.993Z,98265.64
2022-10-25T13:33:35.505Z,98262.88
2022-10-25T13:37:00.245Z,98269.17
2022-10-25T13:40:06.097Z,98271.99
2022-10-25T13:43:21.892Z,98274.67
2022-10-25T13:46:30.754Z,98271.52
2022-10-25T13:49:42.729Z,98280.64
2022-10-25T13:52:58.967Z,98285.34
2022-10-25T13:56:23.487Z,98282.81
2022-10-25T13:59:49.592Z,98281.20
2022-10-25T14:03:12.713Z,98282.48
2022-10-25T14:06:30.907Z,98284.66
2022-10-25T14:09:40.027Z,98285.00
2022-10-25T14:12:48.699Z,98287.31
2022-10-25T14:16:03.130Z,98292.16
2022-10-25T14:19:14.231Z,98290.67
2022-10-25T14:22:30.318Z,98296.86
2022-10-25T14:25:39.583Z,98298.11
2022-10-25T14:28:43.238Z,98297.42
2022-10-25T14:31:46.387Z,98297.69
2022-10-25T14:34:51.427Z,98299.22
2022-10-25T14:37:54.579Z,98300.82
2022-10-25T14:41:04.337Z,98306.48
2022-10-25T14:44:21.999Z,98310.27
2022-10-25T14:47:31.022Z,98311.11
2022-10-25T14:50:33.987Z,98312.77
2022-10-25T14:53:47.997Z,98314.71
2022-10-25T14:57:00.583Z,98321.73
2022-10-25T15:00:06.357Z,98327.90
2022-10-25T15:03:15.915Z,98334.20
2022-10-25T15:06:21.847Z,98330.16
2022-10-25T15:12:52.125Z,98330.02
2022-10-25T15:15:57.033Z,98333.72
2022-10-25T15:19:09.299Z,98333.60
2022-10-25T15:22:15.539Z,98333.39
2022-10-25T15:25:21.585Z,98331.41
2022-10-25T15:28:25.155Z,98331.36
2022-10-25T15:31:30.731Z,98328.33
2022-10-25T15:34:33.710Z,98332.48
2022-10-25T15:37:39.212Z,98334.90
2022-10-25T15:40:42.103Z,98334.02
2022-10-25T15:43:45.015Z,98335.81
2022-10-25T15:46:48.980Z,98334.20
2022-10-25T15:49:53.370Z,98337.39
2022-10-25T15:52:56.674Z,98342.95
2022-10-25T15:55:59.632Z,98343.77
2022-10-25T15:59:02.759Z,98347.20
2022-10-25T16:02:20.840Z,98352.92
2022-10-25T16:05:32.687Z,98351.91
2022-10-25T16:11:48.425Z,98355.98
2022-10-25T16:14:52.970Z,98357.44
2022-10-25T16:17:55.843Z,98358.64
2022-10-25T16:20:59.242Z,98360.66
2022-10-25T16:24:02.153Z,98366.70
2022-10-25T16:27:07.771Z,98369.55
2022-10-25T16:30:19.163Z,98370.36
2022-10-25T16:33:22.118Z,98370.70
2022-10-25T16:36:25.013Z,98371.27
2022-10-25T16:39:27.961Z,98374.95
2022-10-25T16:42:33.531Z,98373.23
2022-10-25T16:45:37.580Z,98377.27
2022-10-25T16:48:40.437Z,98382.52
2022-10-25T16:51:44.359Z,98390.50
2022-10-25T16:54:47.637Z,98388.88
2022-10-25T16:57:50.907Z,98385.08
2022-10-25T17:00:54.061Z,98385.80
2022-10-25T17:03:56.953Z,98386.44
2022-10-25T17:07:00.819Z,98392.93
2022-10-25T17:10:03.767Z,98397.67
2022-10-25T17:13:06.778Z,98400.92
2022-10-25T17:16:13.233Z,98398.33
2022-10-25T17:19:16.124Z,98400.85
2022-10-25T17:22:20.597Z,98406.14
2022-10-25T17:25:23.586Z,98403.60
2022-10-25T17:28:26.688Z,98404.78
2022-10-25T17:31:29.969Z,98409.21
2022-10-25T17:34:32.846Z,98410.63
2022-10-25T17:37:35.815Z,98409.76
2022-10-25T17:40:44.173Z,98407.43
2022-10-25T17:43:50.015Z,98410.91
2022-10-25T17:46:58.315Z,98412.96
2022-10-25T17:50:05.158Z,98417.63
2022-10-25T17:53:09.714Z,98422.91
2022-10-25T17:56:18.238Z,98426.77
2022-10-25T17:59:21.198Z,98431.67
2022-10-25T18:02:24.187Z,98437.53
2022-10-25T18:05:27.115Z,98440.77
2022-10-25T18:08:30.223Z,98441.80
2022-10-25T18:11:33.180Z,98442.61
2022-10-25T18:14:36.255Z,98442.14
2022-10-25T18:17:40.762Z,98435.59
2022-10-25T18:20:45.004Z,98434.98
2022-10-25T18:23:55.101Z,98432.77
2022-10-25T18:26:58.599Z,98435.92
2022-10-25T18:30:02.272Z,98436.08
2022-10-25T18:33:16.249Z,98437.92
2022-10-25T18:36:19.946Z,98438.11
2022-10-25T18:39:23.427Z,98434.96
2022-10-25T18:42:26.333Z,98438.94
2022-10-25T18:45:30.752Z,98442.76
2022-10-25T18:48:35.812Z,98441.52
2022-10-25T18:51:39.094Z,98444.68
2022-10-25T18:54:44.950Z,98449.26
2022-10-25T18:57:47.950Z,98446.52
2022-10-25T19:00:51.270Z,98449.63
2022-10-25T19:03:57.321Z,98451.30
2022-10-25T19:07:00.380Z,98453.61
2022-10-25T19:10:03.482Z,98454.05
2022-10-25T19:13:08.270Z,98454.15
2022-10-25T19:16:13.404Z,98456.54
2022-10-25T19:19:16.367Z,98456.88
2022-10-25T19:22:19.213Z,98457.58
2022-10-25T19:25:23.899Z,98462.10
2022-10-25T19:28:27.012Z,98457.15
2022-10-25T19:31:29.849Z,98457.82
2022-10-25T19:34:32.921Z,98457.53
2022-10-25T19:37:39.237Z,98454.88
2022-10-25T19:40:45.395Z,98458.70
2022-10-25T19:43:48.612Z,98460.23
2022-10-25T19:46:52.197Z,98463.19
2022-10-25T19:49:55.027Z,98463.78
2022-10-25T19:52:58.053Z,98468.63
2022-10-25T19:56:03.389Z,98469.25
2022-10-25T19:59:06.969Z,98468.91
2022-10-25T20:02:10.314Z,98470.06
2022-10-25T20:05:13.494Z,98471.07
2022-10-25T20:08:16.334Z,98470.09
2022-10-25T20:11:20.966Z,98470.94
2022-10-25T20:14:23.778Z,98473.96
2022-10-25T20:17:26.686Z,98467.29
2022-10-25T20:20:29.578Z,98470.25
2022-10-25T20:23:32.378Z,98472.02
2022-10-25T20:26:38.147Z,98479.06
2022-10-25T20:29:41.011Z,98477.91
2022-10-25T20:32:43.915Z,98485.52
2022-10-25T20:35:46.897Z,98482.77
2022-10-25T20:38:50.427Z,98483.66
2022-10-25T20:41:53.302Z,98491.27
2022-10-25T20:44:56.259Z,98484.83
2022-10-25T20:48:00.152Z,98489.79
2022-10-25T20:51:06.825Z,98488.91
2022-10-25T20:54:10.982Z,98492.29
2022-10-25T20:57:13.772Z,98493.21
2022-10-25T21:00:19.730Z,98496.45
2022-10-25T21:03:25.581Z,98495.88
2022-10-25T21:06:28.525Z,98496.91
2022-10-25T21:09:31.358Z,98504.19
2022-10-25T21:12:34.720Z,98509.66
2022-10-25T21:15:37.902Z,98509.20
2022-10-25T21:18:42.552Z,98509.60
2022-10-25T21:21:45.407Z,98509.69
2022-10-25T21:24:48.309Z,98506.46
2022-10-25T21:27:54.602Z,98503.40
2022-10-25T21:31:01.277Z,98503.64
2022-10-25T21:34:04.683Z,98503.83
2022-10-25T21:37:07.679Z,98499.98
2022-10-25T21:40:10.740Z,98496.59
2022-10-25T21:43:13.632Z,98494.25
2022-10-25T21:46:17.928Z,98498.27
2022-10-25T21:49:20.718Z,98496.94
2022-10-25T21:52:23.652Z,98499.86
2022-10-25T21:55:26.550Z,98495.37
2022-10-25T21:58:29.380Z,98497.17
2022-10-25T22:01:33.014Z,98494.73
2022-10-25T22:04:36.109Z,98496.39
2022-10-25T22:07:39.171Z,98495.05
2022-10-25T22:10:42.219Z,98494.66
2022-10-25T22:13:46.114Z,98494.58
2022-10-25T22:16:49.215Z,98495.59
2022-10-25T22:19:52.306Z,98495.45
2022-10-25T22:22:55.349Z,98493.54
2022-10-25T22:26:19.736Z,98495.20
2022-10-25T22:29:22.816Z,98494.80
2022-10-25T22:32:25.849Z,98495.60
2022-10-25T22:35:28.926Z,98495.28
2022-10-25T22:38:31.952Z,98498.76
2022-10-25T22:41:35.449Z,98505.38
2022-10-25T22:44:39.311Z,98505.61
2022-10-25T22:47:42.413Z,98505.15
2022-10-25T22:50:54.064Z,98503.82
2022-10-25T22:53:57.746Z,98505.33
2022-10-25T22:57:00.792Z,98504.72
2022-10-25T23:00:04.178Z,98510.89
2022-10-25T23:03:07.263Z,98510.27
2022-10-25T23:06:12.847Z,98515.02
2022-10-25T23:09:15.963Z,98518.04
2022-10-25T23:12:19.257Z,98519.95
2022-10-25T23:15:22.343Z,98521.71
2022-10-25T23:18:26.191Z,98522.29
2022-10-25T23:21:31.055Z,98523.56
2022-10-25T23:24:34.195Z,98521.15
2022-10-25T23:27:37.273Z,98522.18
2022-10-25T23:30:41.283Z,98521.72
2022-10-25T23:33:45.014Z,98523.63
2022-10-25T23:36:48.767Z,98522.30
2022-10-25T23:39:51.807Z,98521.14
2022-10-25T23:43:08.573Z,98522.73
2022-10-25T23:46:12.123Z,98522.50
2022-10-25T23:49:15.191Z,98522.36
2022-10-25T23:52:18.466Z,98526.38
2022-10-25T23:55:21.583Z,98532.70
2022-10-25T23:58:24.658Z,98538.21
